sensor_id;sensor_type;location;lat;lon;timestamp;temperature;humidity
53776;DHT22;44276;49.534;6.378;2023-06-14T00:00:41;11.70;99.90
53776;DHT22;44276;49.534;6.378;2023-06-14T00:03:11;11.50;99.90
53776;DHT22;44276;49.534;6.378;2023-06-14T00:05:44;11.30;99.90
53776;DHT22;44276;49.534;6.378;2023-06-14T00:08:13;11.20;99.90
53776;DHT22;44276;49.534;6.378;2023-06-14T00:10:42;11.20;99.90
53776;DHT22;44276;49.534;6.378;2023-06-14T00:13:10;11.30;99.90
53776;DHT22;44276;49.534;6.378;2023-06-14T00:15:40;11.20;99.90
53776;DHT22;44276;49.534;6.378;2023-06-14T00:18:12;11.30;99.90
53776;DHT22;44276;49.534;6.378;2023-06-14T00:20:40;11.50;99.90
53776;DHT22;44276;49.534;6.378;2023-06-14T00:23:09;11.50;99.90
53776;DHT22;44276;49.534;6.378;2023-06-14T00:25:38;11.60;99.90
53776;DHT22;44276;49.534;6.378;2023-06-14T00:28:06;11.50;99.90
53776;DHT22;44276;49.534;6.378;2023-06-14T00:30:34;11.50;99.90
53776;DHT22;44276;49.534;6.378;2023-06-14T00:33:04;11.50;99.90
53776;DHT22;44276;49.534;6.378;2023-06-14T00:35:32;11.50;99.90
53776;DHT22;44276;49.534;6.378;2023-06-14T00:38:02;11.50;99.90
53776;DHT22;44276;49.534;6.378;2023-06-14T00:40:30;11.40;99.90
53776;DHT22;44276;49.534;6.378;2023-06-14T00:42:58;11.30;99.90
53776;DHT22;44276;49.534;6.378;2023-06-14T00:45:27;11.30;99.90
53776;DHT22;44276;49.534;6.378;2023-06-14T00:47:56;11.40;99.90
53776;DHT22;44276;49.534;6.378;2023-06-14T00:50:26;11.40;99.90
53776;DHT22;44276;49.534;6.378;2023-06-14T00:52:54;11.40;99.90
53776;DHT22;44276;49.534;6.378;2023-06-14T00:55:22;11.40;99.90
53776;DHT22;44276;49.534;6.378;2023-06-14T00:57:51;11.40;99.90
53776;DHT22;44276;49.534;6.378;2023-06-14T01:00:19;11.40;99.90
53776;DHT22;44276;49.534;6.378;2023-06-14T01:02:48;11.30;99.90
53776;DHT22;44276;49.534;6.378;2023-06-14T01:05:19;11.30;99.90
53776;DHT22;44276;49.534;6.378;2023-06-14T01:08:00;11.20;99.90
53776;DHT22;44276;49.534;6.378;2023-06-14T01:10:53;11.30;99.90
53776;DHT22;44276;49.534;6.378;2023-06-14T01:13:43;11.30;99.90
53776;DHT22;44276;49.534;6.378;2023-06-14T01:16:14;11.20;99.90
53776;DHT22;44276;49.534;6.378;2023-06-14T01:18:44;11.30;99.90
53776;DHT22;44276;49.534;6.378;2023-06-14T01:21:22;11.20;99.90
53776;DHT22;44276;49.534;6.378;2023-06-14T01:23:58;11.30;99.90
53776;DHT22;44276;49.534;6.378;2023-06-14T01:26:34;11.30;99.90
53776;DHT22;44276;49.534;6.378;2023-06-14T01:29:05;11.10;99.90
53776;DHT22;44276;49.534;6.378;2023-06-14T01:31:34;11.10;99.90
53776;DHT22;44276;49.534;6.378;2023-06-14T01:34:11;11.10;99.90
53776;DHT22;44276;49.534;6.378;2023-06-14T01:36:41;11.10;99.90
53776;DHT22;44276;49.534;6.378;2023-06-14T01:39:14;11.20;99.90
53776;DHT22;44276;49.534;6.378;2023-06-14T01:41:44;11.10;99.90
53776;DHT22;44276;49.534;6.378;2023-06-14T01:44:16;11.10;99.90
53776;DHT22;44276;49.534;6.378;2023-06-14T01:46:46;11.10;99.90
53776;DHT22;44276;49.534;6.378;2023-06-14T01:49:16;11.00;99.90
53776;DHT22;44276;49.534;6.378;2023-06-14T01:51:44;10.80;99.90
53776;DHT22;44276;49.534;6.378;2023-06-14T01:54:14;10.80;99.90
53776;DHT22;44276;49.534;6.378;2023-06-14T01:56:42;10.80;99.90
53776;DHT22;44276;49.534;6.378;2023-06-14T01:59:10;10.80;99.90
53776;DHT22;44276;49.534;6.378;2023-06-14T02:01:38;10.90;99.90
53776;DHT22;44276;49.534;6.378;2023-06-14T02:04:10;10.90;99.90
53776;DHT22;44276;49.534;6.378;2023-06-14T02:06:38;10.90;99.90
53776;DHT22;44276;49.534;6.378;2023-06-14T02:09:07;10.80;99.90
53776;DHT22;44276;49.534;6.378;2023-06-14T02:11:36;10.80;99.90
53776;DHT22;44276;49.534;6.378;2023-06-14T02:14:05;10.80;99.90
53776;DHT22;44276;49.534;6.378;2023-06-14T02:16:34;10.80;99.90
53776;DHT22;44276;49.534;6.378;2023-06-14T02:19:03;10.80;99.90
53776;DHT22;44276;49.534;6.378;2023-06-14T02:21:31;10.90;99.90
53776;DHT22;44276;49.534;6.378;2023-06-14T02:23:59;11.00;99.90
53776;DHT22;44276;49.534;6.378;2023-06-14T02:26:28;10.90;99.90
53776;DHT22;44276;49.534;6.378;2023-06-14T02:28:58;10.90;99.90
53776;DHT22;44276;49.534;6.378;2023-06-14T02:31:36;10.80;99.90
53776;DHT22;44276;49.534;6.378;2023-06-14T02:34:05;10.80;99.90
53776;DHT22;44276;49.534;6.378;2023-06-14T02:36:44;10.80;99.90
53776;DHT22;44276;49.534;6.378;2023-06-14T02:39:56;10.70;99.90
53776;DHT22;44276;49.534;6.378;2023-06-14T02:42:44;10.80;99.90
53776;DHT22;44276;49.534;6.378;2023-06-14T02:45:14;10.80;99.90
53776;DHT22;44276;49.534;6.378;2023-06-14T02:47:43;10.80;99.90
53776;DHT22;44276;49.534;6.378;2023-06-14T02:50:11;10.80;99.90
53776;DHT22;44276;49.534;6.378;2023-06-14T02:52:40;10.70;99.90
53776;DHT22;44276;49.534;6.378;2023-06-14T02:55:09;10.70;99.90
53776;DHT22;44276;49.534;6.378;2023-06-14T02:57:37;10.60;99.90
53776;DHT22;44276;49.534;6.378;2023-06-14T03:00:09;10.60;99.90
53776;DHT22;44276;49.534;6.378;2023-06-14T03:02:42;10.60;99.90
53776;DHT22;44276;49.534;6.378;2023-06-14T03:05:11;10.60;99.90
53776;DHT22;44276;49.534;6.378;2023-06-14T03:07:39;10.60;99.90
53776;DHT22;44276;49.534;6.378;2023-06-14T03:10:13;10.60;99.90
53776;DHT22;44276;49.534;6.378;2023-06-14T03:12:42;10.60;99.90
53776;DHT22;44276;49.534;6.378;2023-06-14T03:15:10;10.60;99.90
53776;DHT22;44276;49.534;6.378;2023-06-14T03:17:39;10.50;99.90
53776;DHT22;44276;49.534;6.378;2023-06-14T03:20:17;10.40;99.90
53776;DHT22;44276;49.534;6.378;2023-06-14T03:22:46;10.30;99.90
53776;DHT22;44276;49.534;6.378;2023-06-14T03:25:14;10.40;99.90
53776;DHT22;44276;49.534;6.378;2023-06-14T03:27:42;10.40;99.90
53776;DHT22;44276;49.534;6.378;2023-06-14T03:30:11;10.20;99.90
53776;DHT22;44276;49.534;6.378;2023-06-14T03:32:41;10.20;99.90
53776;DHT22;44276;49.534;6.378;2023-06-14T03:35:10;10.20;99.90
53776;DHT22;44276;49.534;6.378;2023-06-14T03:37:44;10.30;99.90
53776;DHT22;44276;49.534;6.378;2023-06-14T03:40:15;10.30;99.90
53776;DHT22;44276;49.534;6.378;2023-06-14T03:42:48;10.40;99.90
53776;DHT22;44276;49.534;6.378;2023-06-14T03:45:16;10.40;99.90
53776;DHT22;44276;49.534;6.378;2023-06-14T03:47:46;10.50;99.90
53776;DHT22;44276;49.534;6.378;2023-06-14T03:50:14;10.50;99.90
53776;DHT22;44276;49.534;6.378;2023-06-14T03:52:43;10.50;99.90
53776;DHT22;44276;49.534;6.378;2023-06-14T03:55:14;10.50;99.90
53776;DHT22;44276;49.534;6.378;2023-06-14T03:57:46;10.50;99.90
53776;DHT22;44276;49.534;6.378;2023-06-14T04:00:15;10.60;99.90
53776;DHT22;44276;49.534;6.378;2023-06-14T04:02:44;10.60;99.90
53776;DHT22;44276;49.534;6.378;2023-06-14T04:05:14;10.70;99.90
53776;DHT22;44276;49.534;6.378;2023-06-14T04:07:46;10.70;99.90
53776;DHT22;44276;49.534;6.378;2023-06-14T04:10:15;10.80;99.90
53776;DHT22;44276;49.534;6.378;2023-06-14T04:12:44;11.00;99.90
53776;DHT22;44276;49.534;6.378;2023-06-14T04:15:12;11.10;99.90
53776;DHT22;44276;49.534;6.378;2023-06-14T04:17:49;11.20;99.90
53776;DHT22;44276;49.534;6.378;2023-06-14T04:20:17;11.30;99.90
53776;DHT22;44276;49.534;6.378;2023-06-14T04:22:46;11.50;99.90
53776;DHT22;44276;49.534;6.378;2023-06-14T04:25:15;11.50;99.90
53776;DHT22;44276;49.534;6.378;2023-06-14T04:27:50;11.60;99.90
53776;DHT22;44276;49.534;6.378;2023-06-14T04:30:19;11.70;99.90
53776;DHT22;44276;49.534;6.378;2023-06-14T04:32:49;11.80;99.90
53776;DHT22;44276;49.534;6.378;2023-06-14T04:35:20;11.90;99.90
53776;DHT22;44276;49.534;6.378;2023-06-14T04:37:50;12.00;99.90
53776;DHT22;44276;49.534;6.378;2023-06-14T04:40:20;12.10;99.90
53776;DHT22;44276;49.534;6.378;2023-06-14T04:42:48;12.20;99.90
53776;DHT22;44276;49.534;6.378;2023-06-14T04:45:17;12.40;99.90
53776;DHT22;44276;49.534;6.378;2023-06-14T04:47:46;12.40;99.90
53776;DHT22;44276;49.534;6.378;2023-06-14T04:50:15;12.50;99.90
53776;DHT22;44276;49.534;6.378;2023-06-14T04:52:44;12.70;99.90
53776;DHT22;44276;49.534;6.378;2023-06-14T04:55:18;12.80;99.90
53776;DHT22;44276;49.534;6.378;2023-06-14T04:57:46;13.00;99.90
53776;DHT22;44276;49.534;6.378;2023-06-14T05:00:16;13.10;99.90
53776;DHT22;44276;49.534;6.378;2023-06-14T05:02:44;13.20;99.90
53776;DHT22;44276;49.534;6.378;2023-06-14T05:05:14;13.40;99.90
53776;DHT22;44276;49.534;6.378;2023-06-14T05:07:44;13.60;99.90
53776;DHT22;44276;49.534;6.378;2023-06-14T05:10:13;13.80;99.90
53776;DHT22;44276;49.534;6.378;2023-06-14T05:12:41;14.00;99.90
53776;DHT22;44276;49.534;6.378;2023-06-14T05:15:10;14.30;91.60
53776;DHT22;44276;49.534;6.378;2023-06-14T05:17:38;14.70;80.60
53776;DHT22;44276;49.534;6.378;2023-06-14T05:20:07;15.50;64.00
53776;DHT22;44276;49.534;6.378;2023-06-14T05:22:39;17.00;51.80
53776;DHT22;44276;49.534;6.378;2023-06-14T05:25:08;18.60;38.20
53776;DHT22;44276;49.534;6.378;2023-06-14T05:27:36;19.70;32.80
53776;DHT22;44276;49.534;6.378;2023-06-14T05:30:05;20.60;28.40
53776;DHT22;44276;49.534;6.378;2023-06-14T05:32:34;21.40;27.20
53776;DHT22;44276;49.534;6.378;2023-06-14T05:35:03;21.90;25.30
53776;DHT22;44276;49.534;6.378;2023-06-14T05:37:32;22.40;24.40
53776;DHT22;44276;49.534;6.378;2023-06-14T05:40:02;23.00;23.10
53776;DHT22;44276;49.534;6.378;2023-06-14T05:42:32;23.50;23.50
53776;DHT22;44276;49.534;6.378;2023-06-14T05:45:00;24.20;22.10
53776;DHT22;44276;49.534;6.378;2023-06-14T05:47:28;24.70;20.20
53776;DHT22;44276;49.534;6.378;2023-06-14T05:49:57;25.00;19.40
53776;DHT22;44276;49.534;6.378;2023-06-14T05:52:25;24.70;19.70
53776;DHT22;44276;49.534;6.378;2023-06-14T05:54:53;24.90;19.50
53776;DHT22;44276;49.534;6.378;2023-06-14T05:57:22;25.00;18.90
53776;DHT22;44276;49.534;6.378;2023-06-14T05:59:50;25.20;18.30
53776;DHT22;44276;49.534;6.378;2023-06-14T06:02:19;25.20;17.70
53776;DHT22;44276;49.534;6.378;2023-06-14T06:04:47;25.30;18.10
53776;DHT22;44276;49.534;6.378;2023-06-14T06:07:15;26.00;16.90
53776;DHT22;44276;49.534;6.378;2023-06-14T06:09:43;26.00;17.20
53776;DHT22;44276;49.534;6.378;2023-06-14T06:12:11;26.70;16.10
53776;DHT22;44276;49.534;6.378;2023-06-14T06:14:40;27.10;14.90
53776;DHT22;44276;49.534;6.378;2023-06-14T06:17:08;26.90;14.90
53776;DHT22;44276;49.534;6.378;2023-06-14T06:19:37;26.70;15.10
53776;DHT22;44276;49.534;6.378;2023-06-14T06:22:05;26.80;15.10
53776;DHT22;44276;49.534;6.378;2023-06-14T06:24:34;27.10;14.60
53776;DHT22;44276;49.534;6.378;2023-06-14T06:27:03;26.60;15.30
53776;DHT22;44276;49.534;6.378;2023-06-14T06:29:31;26.50;15.40
53776;DHT22;44276;49.534;6.378;2023-06-14T06:32:01;26.30;15.20
53776;DHT22;44276;49.534;6.378;2023-06-14T06:34:29;26.50;15.30
53776;DHT22;44276;49.534;6.378;2023-06-14T06:36:57;26.90;14.20
53776;DHT22;44276;49.534;6.378;2023-06-14T06:39:25;27.20;14.10
53776;DHT22;44276;49.534;6.378;2023-06-14T06:41:53;27.10;14.30
53776;DHT22;44276;49.534;6.378;2023-06-14T06:44:22;27.00;14.50
53776;DHT22;44276;49.534;6.378;2023-06-14T06:46:50;27.30;13.80
53776;DHT22;44276;49.534;6.378;2023-06-14T06:49:20;27.50;13.40
53776;DHT22;44276;49.534;6.378;2023-06-14T06:51:59;27.40;13.50
53776;DHT22;44276;49.534;6.378;2023-06-14T06:54:28;27.60;13.60
53776;DHT22;44276;49.534;6.378;2023-06-14T06:56:56;28.10;12.70
53776;DHT22;44276;49.534;6.378;2023-06-14T06:59:25;27.90;12.60
53776;DHT22;44276;49.534;6.378;2023-06-14T07:01:53;27.40;12.70
53776;DHT22;44276;49.534;6.378;2023-06-14T07:04:22;27.10;13.00
53776;DHT22;44276;49.534;6.378;2023-06-14T07:06:51;27.20;12.90
53776;DHT22;44276;49.534;6.378;2023-06-14T07:09:19;27.50;12.50
53776;DHT22;44276;49.534;6.378;2023-06-14T07:11:47;27.80;12.50
53776;DHT22;44276;49.534;6.378;2023-06-14T07:14:15;27.90;12.40
53776;DHT22;44276;49.534;6.378;2023-06-14T07:16:43;28.60;12.00
53776;DHT22;44276;49.534;6.378;2023-06-14T07:19:13;29.10;10.90
53776;DHT22;44276;49.534;6.378;2023-06-14T07:21:44;29.20;10.70
53776;DHT22;44276;49.534;6.378;2023-06-14T07:24:13;29.40;10.40
53776;DHT22;44276;49.534;6.378;2023-06-14T07:26:41;29.80;10.20
53776;DHT22;44276;49.534;6.378;2023-06-14T07:29:10;29.60;10.40
53776;DHT22;44276;49.534;6.378;2023-06-14T07:31:38;29.60;10.30
53776;DHT22;44276;49.534;6.378;2023-06-14T07:34:06;30.50;9.50
53776;DHT22;44276;49.534;6.378;2023-06-14T07:36:34;30.70;9.10
53776;DHT22;44276;49.534;6.378;2023-06-14T07:39:04;30.40;9.70
53776;DHT22;44276;49.534;6.378;2023-06-14T07:41:33;30.70;9.20
53776;DHT22;44276;49.534;6.378;2023-06-14T07:44:02;31.10;8.90
53776;DHT22;44276;49.534;6.378;2023-06-14T07:46:30;31.40;8.70
53776;DHT22;44276;49.534;6.378;2023-06-14T07:48:58;31.50;8.70
53776;DHT22;44276;49.534;6.378;2023-06-14T07:51:27;31.50;8.40
53776;DHT22;44276;49.534;6.378;2023-06-14T07:53:55;31.60;8.20
53776;DHT22;44276;49.534;6.378;2023-06-14T07:56:24;31.70;8.60
53776;DHT22;44276;49.534;6.378;2023-06-14T07:58:52;32.00;7.90
53776;DHT22;44276;49.534;6.378;2023-06-14T08:01:20;32.30;7.20
53776;DHT22;44276;49.534;6.378;2023-06-14T08:03:51;32.30;7.20
53776;DHT22;44276;49.534;6.378;2023-06-14T08:06:19;32.60;7.40
53776;DHT22;44276;49.534;6.378;2023-06-14T08:08:47;32.30;7.00
53776;DHT22;44276;49.534;6.378;2023-06-14T08:11:15;32.10;7.00
53776;DHT22;44276;49.534;6.378;2023-06-14T08:13:45;32.40;6.70
53776;DHT22;44276;49.534;6.378;2023-06-14T08:16:13;32.80;6.60
53776;DHT22;44276;49.534;6.378;2023-06-14T08:18:41;32.40;7.10
53776;DHT22;44276;49.534;6.378;2023-06-14T08:21:09;31.70;7.20
53776;DHT22;44276;49.534;6.378;2023-06-14T08:23:37;32.50;7.40
53776;DHT22;44276;49.534;6.378;2023-06-14T08:26:05;32.70;6.90
53776;DHT22;44276;49.534;6.378;2023-06-14T08:28:33;32.50;6.90
53776;DHT22;44276;49.534;6.378;2023-06-14T08:31:03;32.80;7.10
53776;DHT22;44276;49.534;6.378;2023-06-14T08:33:31;32.90;6.50
53776;DHT22;44276;49.534;6.378;2023-06-14T08:36:01;32.70;6.70
53776;DHT22;44276;49.534;6.378;2023-06-14T08:38:29;32.10;7.70
53776;DHT22;44276;49.534;6.378;2023-06-14T08:40:58;32.40;7.30
53776;DHT22;44276;49.534;6.378;2023-06-14T08:43:28;32.50;6.40
53776;DHT22;44276;49.534;6.378;2023-06-14T08:45:58;32.70;6.60
53776;DHT22;44276;49.534;6.378;2023-06-14T08:48:31;32.40;7.00
53776;DHT22;44276;49.534;6.378;2023-06-14T08:51:00;33.20;6.80
53776;DHT22;44276;49.534;6.378;2023-06-14T08:53:31;33.70;5.90
53776;DHT22;44276;49.534;6.378;2023-06-14T08:56:04;34.20;4.90
53776;DHT22;44276;49.534;6.378;2023-06-14T08:58:34;33.90;5.40
53776;DHT22;44276;49.534;6.378;2023-06-14T09:01:02;33.00;6.10
53776;DHT22;44276;49.534;6.378;2023-06-14T09:03:33;33.40;5.80
53776;DHT22;44276;49.534;6.378;2023-06-14T09:06:01;34.80;4.40
53776;DHT22;44276;49.534;6.378;2023-06-14T09:08:30;35.70;3.80
53776;DHT22;44276;49.534;6.378;2023-06-14T09:10:58;36.10;2.90
53776;DHT22;44276;49.534;6.378;2023-06-14T09:13:29;35.60;2.90
53776;DHT22;44276;49.534;6.378;2023-06-14T09:15:57;34.80;3.30
53776;DHT22;44276;49.534;6.378;2023-06-14T09:18:35;33.80;4.30
53776;DHT22;44276;49.534;6.378;2023-06-14T09:21:05;33.30;3.80
53776;DHT22;44276;49.534;6.378;2023-06-14T09:23:36;33.30;4.50
53776;DHT22;44276;49.534;6.378;2023-06-14T09:26:08;34.00;3.90
53776;DHT22;44276;49.534;6.378;2023-06-14T09:28:41;34.50;4.10
53776;DHT22;44276;49.534;6.378;2023-06-14T09:31:10;35.00;3.50
53776;DHT22;44276;49.534;6.378;2023-06-14T09:33:42;35.40;2.70
53776;DHT22;44276;49.534;6.378;2023-06-14T09:36:15;34.80;1.60
53776;DHT22;44276;49.534;6.378;2023-06-14T09:38:52;34.10;1.00
53776;DHT22;44276;49.534;6.378;2023-06-14T09:41:27;33.90;2.40
53776;DHT22;44276;49.534;6.378;2023-06-14T09:43:59;34.80;1.50
53776;DHT22;44276;49.534;6.378;2023-06-14T09:46:34;34.60;1.60
53776;DHT22;44276;49.534;6.378;2023-06-14T09:49:05;33.20;2.40
53776;DHT22;44276;49.534;6.378;2023-06-14T09:51:36;33.20;2.80
53776;DHT22;44276;49.534;6.378;2023-06-14T09:54:14;34.00;2.60
53776;DHT22;44276;49.534;6.378;2023-06-14T09:56:45;34.40;1.30
53776;DHT22;44276;49.534;6.378;2023-06-14T09:59:19;33.90;1.50
53776;DHT22;44276;49.534;6.378;2023-06-14T10:01:58;33.90;1.90
53776;DHT22;44276;49.534;6.378;2023-06-14T10:04:31;34.40;1.50
53776;DHT22;44276;49.534;6.378;2023-06-14T10:07:02;33.30;1.20
53776;DHT22;44276;49.534;6.378;2023-06-14T10:09:34;33.40;1.80
53776;DHT22;44276;49.534;6.378;2023-06-14T10:12:03;33.60;2.10
53776;DHT22;44276;49.534;6.378;2023-06-14T10:14:32;33.70;1.70
53776;DHT22;44276;49.534;6.378;2023-06-14T10:17:04;33.40;2.10
53776;DHT22;44276;49.534;6.378;2023-06-14T10:19:42;33.10;1.60
53776;DHT22;44276;49.534;6.378;2023-06-14T10:22:25;32.90;1.80
53776;DHT22;44276;49.534;6.378;2023-06-14T10:24:59;33.40;1.40
53776;DHT22;44276;49.534;6.378;2023-06-14T10:27:27;34.30;1.00
53776;DHT22;44276;49.534;6.378;2023-06-14T10:30:06;34.10;1.00
53776;DHT22;44276;49.534;6.378;2023-06-14T10:33:04;33.80;1.50
53776;DHT22;44276;49.534;6.378;2023-06-14T10:35:35;33.20;2.10
53776;DHT22;44276;49.534;6.378;2023-06-14T10:38:07;33.60;1.60
53776;DHT22;44276;49.534;6.378;2023-06-14T10:40:36;33.10;1.40
53776;DHT22;44276;49.534;6.378;2023-06-14T10:43:21;32.80;1.90
53776;DHT22;44276;49.534;6.378;2023-06-14T10:46:13;33.70;1.30
53776;DHT22;44276;49.534;6.378;2023-06-14T10:48:43;34.40;1.00
53776;DHT22;44276;49.534;6.378;2023-06-14T10:51:20;34.50;1.00
53776;DHT22;44276;49.534;6.378;2023-06-14T10:53:51;34.00;1.00
53776;DHT22;44276;49.534;6.378;2023-06-14T10:56:29;33.30;1.20
53776;DHT22;44276;49.534;6.378;2023-06-14T10:58:58;33.10;1.30
53776;DHT22;44276;49.534;6.378;2023-06-14T11:01:36;32.90;1.40
53776;DHT22;44276;49.534;6.378;2023-06-14T11:04:09;33.20;1.00
53776;DHT22;44276;49.534;6.378;2023-06-14T11:06:47;33.70;1.00
53776;DHT22;44276;49.534;6.378;2023-06-14T11:09:45;34.00;1.00
53776;DHT22;44276;49.534;6.378;2023-06-14T11:12:28;33.60;1.30
53776;DHT22;44276;49.534;6.378;2023-06-14T11:14:59;33.90;1.00
53776;DHT22;44276;49.534;6.378;2023-06-14T11:17:28;34.60;1.00
53776;DHT22;44276;49.534;6.378;2023-06-14T11:20:14;34.50;1.00
53776;DHT22;44276;49.534;6.378;2023-06-14T11:22:49;33.30;1.00
53776;DHT22;44276;49.534;6.378;2023-06-14T11:25:18;32.70;1.90
53776;DHT22;44276;49.534;6.378;2023-06-14T11:27:49;33.10;1.30
53776;DHT22;44276;49.534;6.378;2023-06-14T11:30:17;33.70;1.10
53776;DHT22;44276;49.534;6.378;2023-06-14T11:32:47;33.50;1.30
53776;DHT22;44276;49.534;6.378;2023-06-14T11:35:16;33.00;1.60
53776;DHT22;44276;49.534;6.378;2023-06-14T11:37:45;32.50;2.30
53776;DHT22;44276;49.534;6.378;2023-06-14T11:40:15;32.70;2.50
53776;DHT22;44276;49.534;6.378;2023-06-14T11:42:44;33.00;2.40
53776;DHT22;44276;49.534;6.378;2023-06-14T11:45:12;33.20;1.80
53776;DHT22;44276;49.534;6.378;2023-06-14T11:47:40;33.60;1.50
53776;DHT22;44276;49.534;6.378;2023-06-14T11:50:09;33.40;2.20
53776;DHT22;44276;49.534;6.378;2023-06-14T11:52:38;33.30;1.20
53776;DHT22;44276;49.534;6.378;2023-06-14T11:55:06;32.70;1.90
53776;DHT22;44276;49.534;6.378;2023-06-14T11:57:37;32.50;2.40
53776;DHT22;44276;49.534;6.378;2023-06-14T12:00:07;32.90;2.30
53776;DHT22;44276;49.534;6.378;2023-06-14T12:02:38;32.90;3.00
53776;DHT22;44276;49.534;6.378;2023-06-14T12:05:08;32.90;2.40
53776;DHT22;44276;49.534;6.378;2023-06-14T12:07:37;33.20;2.50
53776;DHT22;44276;49.534;6.378;2023-06-14T12:10:09;32.90;2.70
53776;DHT22;44276;49.534;6.378;2023-06-14T12:12:39;32.60;3.10
53776;DHT22;44276;49.534;6.378;2023-06-14T12:15:09;32.50;2.60
53776;DHT22;44276;49.534;6.378;2023-06-14T12:17:39;33.30;1.90
53776;DHT22;44276;49.534;6.378;2023-06-14T12:20:12;34.10;1.00
53776;DHT22;44276;49.534;6.378;2023-06-14T12:22:51;33.70;1.00
53776;DHT22;44276;49.534;6.378;2023-06-14T12:25:26;33.70;1.50
53776;DHT22;44276;49.534;6.378;2023-06-14T12:27:57;34.10;1.70
53776;DHT22;44276;49.534;6.378;2023-06-14T12:30:25;34.70;1.30
53776;DHT22;44276;49.534;6.378;2023-06-14T12:32:54;34.30;1.20
53776;DHT22;44276;49.534;6.378;2023-06-14T12:35:22;34.40;1.30
53776;DHT22;44276;49.534;6.378;2023-06-14T12:37:50;34.40;1.70
53776;DHT22;44276;49.534;6.378;2023-06-14T12:40:21;33.50;1.80
53776;DHT22;44276;49.534;6.378;2023-06-14T12:42:49;33.50;2.10
53776;DHT22;44276;49.534;6.378;2023-06-14T12:45:19;33.80;2.10
53776;DHT22;44276;49.534;6.378;2023-06-14T12:47:47;33.70;1.90
53776;DHT22;44276;49.534;6.378;2023-06-14T12:50:15;32.90;2.50
53776;DHT22;44276;49.534;6.378;2023-06-14T12:52:44;32.20;3.40
53776;DHT22;44276;49.534;6.378;2023-06-14T12:55:12;31.80;3.40
53776;DHT22;44276;49.534;6.378;2023-06-14T12:57:41;31.90;3.40
53776;DHT22;44276;49.534;6.378;2023-06-14T13:00:10;32.20;3.20
53776;DHT22;44276;49.534;6.378;2023-06-14T13:02:41;32.30;2.60
53776;DHT22;44276;49.534;6.378;2023-06-14T13:05:09;31.80;2.40
53776;DHT22;44276;49.534;6.378;2023-06-14T13:07:38;32.20;3.00
53776;DHT22;44276;49.534;6.378;2023-06-14T13:10:06;32.40;2.50
53776;DHT22;44276;49.534;6.378;2023-06-14T13:12:35;32.50;2.00
53776;DHT22;44276;49.534;6.378;2023-06-14T13:15:04;32.70;2.00
53776;DHT22;44276;49.534;6.378;2023-06-14T13:17:32;31.70;1.10
53776;DHT22;44276;49.534;6.378;2023-06-14T13:20:07;31.60;2.00
53776;DHT22;44276;49.534;6.378;2023-06-14T13:22:36;32.30;1.00
53776;DHT22;44276;49.534;6.378;2023-06-14T13:25:07;33.10;1.00
53776;DHT22;44276;49.534;6.378;2023-06-14T13:27:35;32.90;1.00
53776;DHT22;44276;49.534;6.378;2023-06-14T13:30:04;32.00;2.10
53776;DHT22;44276;49.534;6.378;2023-06-14T13:32:33;32.00;1.50
53776;DHT22;44276;49.534;6.378;2023-06-14T13:35:02;31.90;2.30
53776;DHT22;44276;49.534;6.378;2023-06-14T13:37:32;32.80;1.30
53776;DHT22;44276;49.534;6.378;2023-06-14T13:40:00;33.30;1.50
53776;DHT22;44276;49.534;6.378;2023-06-14T13:42:28;33.10;1.20
53776;DHT22;44276;49.534;6.378;2023-06-14T13:44:58;32.40;1.50
53776;DHT22;44276;49.534;6.378;2023-06-14T13:47:26;31.90;1.40
53776;DHT22;44276;49.534;6.378;2023-06-14T13:49:55;31.30;2.10
53776;DHT22;44276;49.534;6.378;2023-06-14T13:52:23;31.20;2.80
53776;DHT22;44276;49.534;6.378;2023-06-14T13:54:52;31.10;2.80
53776;DHT22;44276;49.534;6.378;2023-06-14T13:57:21;30.80;2.90
53776;DHT22;44276;49.534;6.378;2023-06-14T13:59:49;30.80;2.60
53776;DHT22;44276;49.534;6.378;2023-06-14T14:02:17;31.10;2.40
53776;DHT22;44276;49.534;6.378;2023-06-14T14:04:47;31.70;2.10
53776;DHT22;44276;49.534;6.378;2023-06-14T14:07:19;31.10;2.70
53776;DHT22;44276;49.534;6.378;2023-06-14T14:09:48;31.30;1.90
53776;DHT22;44276;49.534;6.378;2023-06-14T14:12:18;30.90;2.70
53776;DHT22;44276;49.534;6.378;2023-06-14T14:14:46;31.20;3.00
53776;DHT22;44276;49.534;6.378;2023-06-14T14:17:14;31.20;2.80
53776;DHT22;44276;49.534;6.378;2023-06-14T14:19:42;30.80;3.10
53776;DHT22;44276;49.534;6.378;2023-06-14T14:22:10;30.80;3.20
53776;DHT22;44276;49.534;6.378;2023-06-14T14:24:39;30.60;3.10
53776;DHT22;44276;49.534;6.378;2023-06-14T14:27:07;30.20;3.60
53776;DHT22;44276;49.534;6.378;2023-06-14T14:29:36;30.50;3.50
53776;DHT22;44276;49.534;6.378;2023-06-14T14:32:05;30.20;3.80
53776;DHT22;44276;49.534;6.378;2023-06-14T14:34:33;30.00;3.30
53776;DHT22;44276;49.534;6.378;2023-06-14T14:37:02;29.60;3.90
53776;DHT22;44276;49.534;6.378;2023-06-14T14:39:30;29.70;4.00
53776;DHT22;44276;49.534;6.378;2023-06-14T14:41:58;30.20;3.30
53776;DHT22;44276;49.534;6.378;2023-06-14T14:44:26;31.30;2.00
53776;DHT22;44276;49.534;6.378;2023-06-14T14:46:56;32.00;2.20
53776;DHT22;44276;49.534;6.378;2023-06-14T14:49:24;31.80;2.40
53776;DHT22;44276;49.534;6.378;2023-06-14T14:51:52;31.60;2.10
53776;DHT22;44276;49.534;6.378;2023-06-14T14:54:20;30.90;3.00
53776;DHT22;44276;49.534;6.378;2023-06-14T14:56:48;30.40;3.70
53776;DHT22;44276;49.534;6.378;2023-06-14T14:59:17;30.30;4.20
53776;DHT22;44276;49.534;6.378;2023-06-14T15:01:45;30.20;4.00
53776;DHT22;44276;49.534;6.378;2023-06-14T15:04:16;29.90;4.50
53776;DHT22;44276;49.534;6.378;2023-06-14T15:06:45;29.60;4.20
53776;DHT22;44276;49.534;6.378;2023-06-14T15:09:13;29.40;5.20
53776;DHT22;44276;49.534;6.378;2023-06-14T15:11:41;29.30;5.00
53776;DHT22;44276;49.534;6.378;2023-06-14T15:14:11;29.30;5.10
53776;DHT22;44276;49.534;6.378;2023-06-14T15:16:39;29.30;5.50
53776;DHT22;44276;49.534;6.378;2023-06-14T15:19:07;29.30;4.70
53776;DHT22;44276;49.534;6.378;2023-06-14T15:21:37;29.00;4.80
53776;DHT22;44276;49.534;6.378;2023-06-14T15:24:06;29.20;4.50
53776;DHT22;44276;49.534;6.378;2023-06-14T15:26:34;29.40;5.20
53776;DHT22;44276;49.534;6.378;2023-06-14T15:29:03;29.40;4.30
53776;DHT22;44276;49.534;6.378;2023-06-14T15:31:31;29.00;4.30
53776;DHT22;44276;49.534;6.378;2023-06-14T15:33:59;29.30;4.80
53776;DHT22;44276;49.534;6.378;2023-06-14T15:36:28;29.70;4.10
53776;DHT22;44276;49.534;6.378;2023-06-14T15:38:57;29.50;4.90
53776;DHT22;44276;49.534;6.378;2023-06-14T15:41:25;29.10;4.50
53776;DHT22;44276;49.534;6.378;2023-06-14T15:43:53;29.00;4.50
53776;DHT22;44276;49.534;6.378;2023-06-14T15:46:22;28.90;5.20
53776;DHT22;44276;49.534;6.378;2023-06-14T15:48:50;29.10;5.50
53776;DHT22;44276;49.534;6.378;2023-06-14T15:51:18;29.10;5.00
53776;DHT22;44276;49.534;6.378;2023-06-14T15:53:46;29.10;4.60
53776;DHT22;44276;49.534;6.378;2023-06-14T15:56:16;29.10;4.00
53776;DHT22;44276;49.534;6.378;2023-06-14T15:58:44;28.90;4.70